createdAt,value
2023-03-04T00:00:12.548Z,92.60
2023-03-04T00:02:41.933Z,92.70
2023-03-04T00:05:10.639Z,92.80
2023-03-04T00:07:38.620Z,92.80
2023-03-04T00:10:07.733Z,92.20
2023-03-04T00:12:35.854Z,92.00
2023-03-04T00:15:04.320Z,92.10
2023-03-04T00:17:32.447Z,92.30
2023-03-04T00:20:01.966Z,92.30
2023-03-04T00:22:29.924Z,91.90
2023-03-04T00:24:57.870Z,91.70
2023-03-04T00:27:25.907Z,91.70
2023-03-04T00:29:53.863Z,92.50
2023-03-04T00:32:21.844Z,92.70
2023-03-04T00:34:50.099Z,92.60
2023-03-04T00:37:19.465Z,92.40
2023-03-04T00:39:47.491Z,92.60
2023-03-04T00:42:15.595Z,93.00
2023-03-04T00:44:43.526Z,93.20
2023-03-04T00:47:11.477Z,93.00
2023-03-04T00:49:39.470Z,92.40
2023-03-04T00:52:07.694Z,92.50
2023-03-04T00:54:37.020Z,92.40
2023-03-04T00:57:05.249Z,92.20
2023-03-04T00:59:33.591Z,92.30
2023-03-04T01:02:01.785Z,92.40
2023-03-04T01:04:30.072Z,92.10
2023-03-04T01:06:58.069Z,92.60
2023-03-04T01:09:26.874Z,92.50
2023-03-04T01:11:56.321Z,92.50
2023-03-04T01:14:24.610Z,92.80
2023-03-04T01:16:52.776Z,92.90
2023-03-04T01:19:21.531Z,92.80
2023-03-04T01:21:49.501Z,92.50
2023-03-04T01:24:17.610Z,92.20
2023-03-04T01:26:45.897Z,92.00
2023-03-04T01:29:15.246Z,92.20
2023-03-04T01:31:43.252Z,93.10
2023-03-04T01:34:11.202Z,92.60
2023-03-04T01:36:39.217Z,92.50
2023-03-04T01:39:07.381Z,92.70
2023-03-04T01:41:35.451Z,93.00
2023-03-04T01:44:05.224Z,93.50
2023-03-04T01:46:35.036Z,93.30
2023-03-04T01:49:03.100Z,92.90
2023-03-04T01:51:31.351Z,93.10
2023-03-04T01:53:59.456Z,93.70
2023-03-04T01:56:30.945Z,94.20
2023-03-04T01:59:13.218Z,94.10
2023-03-04T02:01:44.881Z,94.10
2023-03-04T02:04:14.008Z,94.20
2023-03-04T02:06:43.176Z,93.50
2023-03-04T02:09:11.835Z,93.70
2023-03-04T02:11:40.638Z,93.30
2023-03-04T02:14:09.281Z,93.40
2023-03-04T02:16:37.357Z,93.40
2023-03-04T02:19:15.000Z,93.50
2023-03-04T02:21:43.208Z,93.60
2023-03-04T02:24:16.646Z,93.60
2023-03-04T02:26:47.169Z,93.70
2023-03-04T02:29:17.983Z,93.90
2023-03-04T02:31:47.920Z,94.00
2023-03-04T02:34:18.281Z,94.30
2023-03-04T02:36:47.954Z,94.20
2023-03-04T02:39:26.352Z,93.90
2023-03-04T02:41:56.827Z,94.40
2023-03-04T02:44:26.967Z,94.70
2023-03-04T02:46:56.326Z,94.60
2023-03-04T02:49:26.458Z,94.30
2023-03-04T02:51:59.862Z,94.60
2023-03-04T02:54:28.455Z,94.20
2023-03-04T02:57:00.503Z,94.20
2023-03-04T02:59:29.061Z,94.20
2023-03-04T03:01:57.655Z,94.90
2023-03-04T03:04:27.423Z,94.30
2023-03-04T03:06:55.768Z,94.60
2023-03-04T03:09:23.989Z,94.40
2023-03-04T03:11:53.117Z,94.20
2023-03-04T03:14:22.532Z,93.70
2023-03-04T03:16:50.549Z,94.00
2023-03-04T03:19:18.654Z,94.50
2023-03-04T03:21:47.059Z,94.90
2023-03-04T03:24:15.324Z,94.90
2023-03-04T03:26:43.326Z,95.10
2023-03-04T03:29:11.279Z,95.70
2023-03-04T03:31:40.744Z,96.30
2023-03-04T03:34:08.927Z,95.70
2023-03-04T03:36:36.985Z,95.10
2023-03-04T03:39:05.488Z,95.10
2023-03-04T03:41:33.529Z,95.40
2023-03-04T03:44:01.840Z,95.70
2023-03-04T03:46:29.959Z,95.80
2023-03-04T03:48:59.287Z,95.50
2023-03-04T03:51:27.280Z,95.00
2023-03-04T03:53:55.336Z,94.90
2023-03-04T03:56:23.324Z,95.10
2023-03-04T03:58:51.288Z,95.50
2023-03-04T04:01:19.272Z,95.70
2023-03-04T04:03:47.419Z,95.70
2023-03-04T04:06:16.831Z,95.40
2023-03-04T04:08:44.816Z,95.70
2023-03-04T04:11:13.203Z,96.20
2023-03-04T04:13:41.525Z,95.90
2023-03-04T04:16:10.407Z,95.60
2023-03-04T04:18:38.877Z,95.40
2023-03-04T04:21:07.266Z,95.40
2023-03-04T04:23:36.573Z,96.00
2023-03-04T04:26:04.702Z,95.80
2023-03-04T04:28:32.785Z,96.20
2023-03-04T04:31:00.910Z,96.40
2023-03-04T04:33:28.939Z,96.30
2023-03-04T04:35:56.952Z,95.90
2023-03-04T04:38:25.989Z,96.00
2023-03-04T04:40:57.605Z,95.90
2023-03-04T04:43:25.778Z,95.60
2023-03-04T04:45:53.980Z,95.20
2023-03-04T04:48:21.987Z,95.50
2023-03-04T04:50:56.312Z,95.40
2023-03-04T04:53:24.335Z,95.30
2023-03-04T04:55:52.306Z,95.50
2023-03-04T04:58:21.862Z,95.80
2023-03-04T05:00:50.043Z,96.30
2023-03-04T05:03:18.845Z,96.40
2023-03-04T05:05:47.150Z,96.60
2023-03-04T05:08:15.107Z,96.60
2023-03-04T05:10:43.557Z,96.30
2023-03-04T05:13:12.255Z,96.10
2023-03-04T05:15:41.679Z,95.80
2023-03-04T05:18:09.697Z,96.00
2023-03-04T05:20:37.818Z,96.60
2023-03-04T05:23:06.037Z,97.10
2023-03-04T05:25:33.946Z,97.20
2023-03-04T05:28:02.114Z,96.80
2023-03-04T05:30:30.119Z,97.20
2023-03-04T05:32:59.480Z,97.50
2023-03-04T05:35:29.044Z,97.60
2023-03-04T05:37:57.172Z,97.80
2023-03-04T05:40:25.887Z,97.30
2023-03-04T05:42:54.007Z,97.10
2023-03-04T05:45:22.004Z,97.20
2023-03-04T05:47:50.178Z,97.50
2023-03-04T05:50:20.257Z,97.20
2023-03-04T05:52:48.846Z,97.00
2023-03-04T05:55:19.655Z,97.40
2023-03-04T05:57:49.699Z,97.10
2023-03-04T06:00:18.532Z,96.90
2023-03-04T06:02:46.672Z,97.00
2023-03-04T06:05:18.956Z,96.60
2023-03-04T06:07:48.478Z,96.40
2023-03-04T06:10:18.885Z,96.20
2023-03-04T06:12:46.960Z,96.30
2023-03-04T06:15:15.164Z,96.60
2023-03-04T06:17:46.384Z,96.70
2023-03-04T06:20:15.702Z,96.80
2023-03-04T06:22:43.741Z,97.50
2023-03-04T06:25:13.651Z,97.60
2023-03-04T06:27:41.710Z,97.50
2023-03-04T06:30:11.308Z,97.50
2023-03-04T06:32:44.307Z,97.70
2023-03-04T06:35:12.893Z,97.60
2023-03-04T06:37:41.176Z,97.90
2023-03-04T06:40:11.069Z,98.00
2023-03-04T06:42:41.135Z,98.30
2023-03-04T06:45:10.282Z,98.30
2023-03-04T06:47:38.661Z,98.10
2023-03-04T06:50:07.312Z,98.10
2023-03-04T06:52:35.417Z,98.10
2023-03-04T06:55:03.459Z,98.30
2023-03-04T06:57:31.443Z,98.40
2023-03-04T07:00:03.488Z,98.30
2023-03-04T07:02:31.490Z,98.10
2023-03-04T07:04:59.665Z,98.10
2023-03-04T07:07:27.989Z,98.00
2023-03-04T07:09:56.156Z,97.90
2023-03-04T07:12:24.142Z,97.90
2023-03-04T07:14:52.229Z,98.50
2023-03-04T07:17:21.619Z,98.60
2023-03-04T07:19:49.669Z,98.50
2023-03-04T07:22:17.704Z,98.30
2023-03-04T07:24:45.706Z,98.40
2023-03-04T07:27:13.695Z,98.40
2023-03-04T07:29:41.678Z,98.50
2023-03-04T07:32:10.618Z,98.20
2023-03-04T07:34:40.025Z,98.20
2023-03-04T07:37:08.432Z,98.20
2023-03-04T07:39:36.458Z,98.00
2023-03-04T07:42:04.587Z,98.20
2023-03-04T07:44:32.574Z,98.20
2023-03-04T07:47:00.535Z,98.20
2023-03-04T07:49:28.640Z,98.10
2023-03-04T07:51:57.964Z,98.10
2023-03-04T07:54:26.036Z,98.20
2023-03-04T07:56:56.887Z,97.80
2023-03-04T07:59:25.115Z,97.70
2023-03-04T08:01:53.156Z,97.70
2023-03-04T08:04:21.259Z,97.50
2023-03-04T08:06:49.714Z,97.20
2023-03-04T08:09:19.151Z,96.70
2023-03-04T08:11:47.192Z,96.70
2023-03-04T08:14:15.610Z,96.90
2023-03-04T08:16:43.652Z,96.40
2023-03-04T08:19:13.274Z,96.10
2023-03-04T08:21:41.359Z,95.80
2023-03-04T08:24:09.547Z,95.50
2023-03-04T08:26:42.329Z,95.30
2023-03-04T08:29:12.008Z,95.10
2023-03-04T08:31:40.420Z,94.80
2023-03-04T08:34:10.500Z,94.60
2023-03-04T08:36:39.110Z,94.40
2023-03-04T08:39:07.642Z,94.20
2023-03-04T08:41:35.806Z,93.90
2023-03-04T08:44:05.864Z,93.80
2023-03-04T08:46:33.883Z,93.70
2023-03-04T08:49:01.839Z,93.40
2023-03-04T08:51:29.848Z,93.30
2023-03-04T08:53:57.890Z,93.40
2023-03-04T08:56:25.940Z,93.50
2023-03-04T08:58:54.150Z,93.10
2023-03-04T09:01:23.859Z,92.60
2023-03-04T09:03:51.954Z,92.30
2023-03-04T09:06:20.396Z,92.20
2023-03-04T09:08:48.458Z,92.40
2023-03-04T09:11:16.684Z,92.20
2023-03-04T09:13:44.937Z,91.90
2023-03-04T09:16:14.993Z,91.40
2023-03-04T09:18:44.576Z,91.00
2023-03-04T09:21:12.931Z,90.90
2023-03-04T09:23:41.307Z,90.70
2023-03-04T09:26:18.629Z,90.40
2023-03-04T09:28:46.788Z,90.00
2023-03-04T09:31:15.734Z,89.90
2023-03-04T09:33:45.688Z,88.30
2023-03-04T09:36:15.403Z,88.00
2023-03-04T09:38:44.243Z,86.90
2023-03-04T09:41:17.567Z,86.80
2023-03-04T09:43:46.397Z,85.80
2023-03-04T09:46:17.591Z,85.80
2023-03-04T09:48:50.721Z,84.70
2023-03-04T09:51:23.210Z,84.40
2023-03-04T09:54:06.669Z,84.10
2023-03-04T09:56:36.258Z,84.20
2023-03-04T09:59:12.409Z,83.80
2023-03-04T10:01:47.171Z,83.60
2023-03-04T10:04:19.203Z,84.70
2023-03-04T10:06:54.627Z,83.70
2023-03-04T10:09:26.419Z,82.80
2023-03-04T10:12:03.865Z,82.20
2023-03-04T10:14:36.704Z,81.90
2023-03-04T10:17:13.038Z,80.90
2023-03-04T10:19:58.867Z,79.00
2023-03-04T10:22:33.671Z,77.90
2023-03-04T10:25:15.914Z,77.00
2023-03-04T10:27:44.925Z,77.10
2023-03-04T10:30:24.550Z,76.60
2023-03-04T10:32:52.614Z,75.30
2023-03-04T10:35:27.572Z,74.60
2023-03-04T10:37:55.615Z,74.80
2023-03-04T10:40:25.698Z,74.80
2023-03-04T10:42:55.152Z,73.70
2023-03-04T10:45:25.340Z,73.70
2023-03-04T10:47:54.631Z,73.00
2023-03-04T10:50:26.219Z,72.20
2023-03-04T10:52:56.074Z,72.50
2023-03-04T10:55:28.334Z,71.50
2023-03-04T10:57:58.183Z,70.70
2023-03-04T11:00:32.238Z,69.60
2023-03-04T11:03:25.968Z,67.60
2023-03-04T11:06:08.414Z,67.10
2023-03-04T11:08:36.404Z,66.90
2023-03-04T11:11:04.502Z,66.00
2023-03-04T11:13:33.178Z,66.10
2023-03-04T11:16:03.150Z,65.70
2023-03-04T11:18:41.816Z,64.40
2023-03-04T11:21:17.328Z,62.30
2023-03-04T11:23:50.279Z,62.30
2023-03-04T11:26:22.333Z,62.60
2023-03-04T11:28:55.260Z,62.40
2023-03-04T11:31:29.084Z,63.10
2023-03-04T11:34:02.457Z,60.10
2023-03-04T11:36:40.841Z,59.80
2023-03-04T11:39:19.840Z,58.70
2023-03-04T11:41:54.387Z,57.90
2023-03-04T11:44:22.449Z,57.60
2023-03-04T11:47:08.571Z,57.20
2023-03-04T11:50:00.064Z,56.10
2023-03-04T11:52:43.505Z,56.10
2023-03-04T11:55:26.472Z,56.50
2023-03-04T11:58:04.352Z,57.40
2023-03-04T12:00:39.995Z,56.20
2023-03-04T12:03:43.210Z,55.40
2023-03-04T12:06:18.304Z,55.40
2023-03-04T12:09:18.295Z,56.20
2023-03-04T12:11:56.821Z,54.70
2023-03-04T12:14:31.763Z,55.70
2023-03-04T12:17:23.680Z,55.80
2023-03-04T12:20:14.368Z,55.30
2023-03-04T12:22:45.966Z,55.20
2023-03-04T12:25:45.398Z,52.20
2023-03-04T12:28:41.830Z,51.80
2023-03-04T12:31:25.685Z,53.20
2023-03-04T12:34:16.289Z,52.60
2023-03-04T12:36:50.148Z,52.10
2023-03-04T12:39:31.354Z,51.20
2023-03-04T12:42:13.320Z,50.80
2023-03-04T12:44:47.920Z,50.20
2023-03-04T12:47:28.268Z,49.10
2023-03-04T12:50:19.902Z,48.90
2023-03-04T12:52:58.461Z,48.20
2023-03-04T12:55:36.431Z,49.50
2023-03-04T12:58:07.102Z,49.10
2023-03-04T13:00:47.351Z,48.40
2023-03-04T13:03:23.326Z,48.40
2023-03-04T13:06:20.815Z,47.60
2023-03-04T13:09:00.634Z,48.30
2023-03-04T13:11:52.693Z,49.20
2023-03-04T13:14:36.122Z,50.50
2023-03-04T13:17:34.777Z,49.90
2023-03-04T13:20:19.704Z,48.10
2023-03-04T13:22:53.477Z,46.20
2023-03-04T13:25:34.045Z,46.50
2023-03-04T13:28:30.623Z,46.20
2023-03-04T13:31:20.785Z,44.70
2023-03-04T13:34:01.782Z,44.30
2023-03-04T13:36:56.491Z,43.60
2023-03-04T13:39:33.749Z,43.20
2023-03-04T13:42:02.435Z,42.90
2023-03-04T13:45:06.221Z,42.90
2023-03-04T13:47:49.522Z,43.40
2023-03-04T13:50:37.576Z,43.00
2023-03-04T13:53:30.640Z,41.60
2023-03-04T13:56:39.171Z,40.30
2023-03-04T13:59:22.610Z,39.90
2023-03-04T14:01:59.925Z,39.70
2023-03-04T14:04:36.889Z,40.30
2023-03-04T14:07:20.308Z,39.70
2023-03-04T14:10:00.181Z,39.60
2023-03-04T14:12:30.837Z,38.80
2023-03-04T14:15:00.772Z,38.60
2023-03-04T14:17:32.217Z,38.00
2023-03-04T14:20:03.397Z,38.70
2023-03-04T14:22:33.385Z,38.30
2023-03-04T14:25:03.475Z,38.50
2023-03-04T14:27:35.370Z,38.30
2023-03-04T14:30:05.086Z,38.00
2023-03-04T14:32:33.457Z,38.70
2023-03-04T14:35:07.700Z,38.30
2023-03-04T14:37:44.593Z,39.10
2023-03-04T14:40:21.852Z,38.70
2023-03-04T14:42:54.550Z,38.30
2023-03-04T14:45:24.149Z,38.50
2023-03-04T14:47:54.498Z,39.10
2023-03-04T14:50:24.295Z,40.00
2023-03-04T14:53:11.974Z,40.60
2023-03-04T14:55:39.980Z,39.50
2023-03-04T14:58:09.746Z,39.50
2023-03-04T15:00:39.080Z,40.70
2023-03-04T15:03:21.832Z,40.00
2023-03-04T15:05:52.903Z,39.90
2023-03-04T15:08:25.484Z,40.20
2023-03-04T15:10:58.345Z,40.50
2023-03-04T15:13:40.404Z,40.50
2023-03-04T15:16:10.078Z,40.50
2023-03-04T15:18:38.627Z,40.10
2023-03-04T15:21:36.893Z,40.30
2023-03-04T15:24:06.202Z,39.50
2023-03-04T15:26:35.920Z,39.20
2023-03-04T15:29:05.558Z,38.70
2023-03-04T15:31:33.518Z,39.00
2023-03-04T15:34:01.512Z,40.40
2023-03-04T15:36:30.878Z,39.80
2023-03-04T15:38:59.295Z,40.10
2023-03-04T15:41:28.396Z,40.40
2023-03-04T15:43:56.571Z,39.60
2023-03-04T15:46:25.112Z,38.40
2023-03-04T15:48:53.235Z,38.10
2023-03-04T15:51:23.302Z,38.20
2023-03-04T15:53:54.777Z,38.80
2023-03-04T15:56:25.724Z,39.00
2023-03-04T15:58:56.442Z,38.40
2023-03-04T16:01:25.641Z,38.20
2023-03-04T16:03:54.121Z,38.50
2023-03-04T16:06:23.574Z,38.10
2023-03-04T16:08:53.609Z,38.70
2023-03-04T16:11:23.510Z,39.40
2023-03-04T16:13:51.536Z,38.10
2023-03-04T16:16:19.931Z,40.00
2023-03-04T16:18:48.303Z,40.00
2023-03-04T16:21:19.814Z,39.90
2023-03-04T16:23:50.144Z,40.20
2023-03-04T16:26:24.319Z,41.20
2023-03-04T16:28:53.122Z,41.80
2023-03-04T16:31:22.685Z,42.60
2023-03-04T16:33:50.965Z,43.10
2023-03-04T16:36:23.177Z,43.70
2023-03-04T16:38:52.482Z,44.10
2023-03-04T16:41:24.191Z,43.40
2023-03-04T16:43:52.226Z,43.90
2023-03-04T16:46:20.191Z,44.60
2023-03-04T16:48:50.736Z,45.60
2023-03-04T16:51:21.076Z,45.50
2023-03-04T16:53:51.064Z,46.70
2023-03-04T16:56:20.516Z,46.50
2023-03-04T16:58:50.528Z,46.90
2023-03-04T17:01:20.330Z,47.40
2023-03-04T17:03:48.828Z,47.70
2023-03-04T17:06:17.267Z,47.80
2023-03-04T17:08:45.525Z,48.30
2023-03-04T17:11:16.922Z,49.00
2023-03-04T17:13:44.920Z,50.30
2023-03-04T17:16:15.304Z,51.90
2023-03-04T17:18:44.283Z,51.00
2023-03-04T17:21:14.222Z,53.10
2023-03-04T17:23:42.211Z,52.70
2023-03-04T17:26:10.412Z,51.10
2023-03-04T17:28:38.681Z,51.50
2023-03-04T17:31:10.387Z,52.90
2023-03-04T17:33:40.045Z,53.60
2023-03-04T17:36:11.610Z,55.60
2023-03-04T17:38:40.134Z,56.10
2023-03-04T17:41:10.443Z,56.30
2023-03-04T17:43:38.452Z,56.50
2023-03-04T17:46:08.715Z,56.60
2023-03-04T17:48:36.817Z,57.60
2023-03-04T17:51:06.613Z,58.20
2023-03-04T17:53:34.727Z,58.90
2023-03-04T17:56:05.519Z,58.70
2023-03-04T17:58:35.875Z,58.30
2023-03-04T18:01:06.801Z,58.80
2023-03-04T18:03:34.850Z,59.00
2023-03-04T18:06:02.844Z,58.90
2023-03-04T18:08:32.193Z,58.90
2023-03-04T18:11:00.186Z,58.90
2023-03-04T18:13:28.211Z,58.60
2023-03-04T18:15:56.839Z,58.70
2023-03-04T18:18:25.033Z,58.00
2023-03-04T18:20:58.574Z,58.20
2023-03-04T18:23:26.929Z,59.20
2023-03-04T18:25:56.449Z,58.40
2023-03-04T18:28:24.574Z,58.80
2023-03-04T18:30:52.902Z,58.80
2023-03-04T18:33:22.102Z,57.90
2023-03-04T18:35:50.268Z,58.70
2023-03-04T18:38:18.262Z,59.20
2023-03-04T18:40:46.186Z,60.20
2023-03-04T18:43:15.658Z,59.90
2023-03-04T18:45:44.003Z,59.50
2023-03-04T18:48:12.041Z,61.20
2023-03-04T18:50:40.097Z,61.00
2023-03-04T18:53:08.092Z,61.90
2023-03-04T18:55:36.192Z,61.00
2023-03-04T18:58:04.943Z,61.20
2023-03-04T19:00:34.840Z,61.90
2023-03-04T19:03:07.492Z,63.00
2023-03-04T19:05:36.125Z,62.70
2023-03-04T19:08:05.024Z,62.70
2023-03-04T19:10:33.206Z,62.30
2023-03-04T19:13:02.544Z,63.20
2023-03-04T19:15:30.833Z,64.30
2023-03-04T19:18:00.127Z,63.60
2023-03-04T19:20:28.306Z,62.60
2023-03-04T19:22:56.288Z,63.30
2023-03-04T19:25:24.276Z,62.00
2023-03-04T19:27:55.367Z,61.90
2023-03-04T19:30:23.604Z,63.50
2023-03-04T19:32:51.587Z,66.60
2023-03-04T19:35:21.109Z,65.80
2023-03-04T19:37:49.188Z,65.80
2023-03-04T19:40:17.472Z,64.40
2023-03-04T19:42:46.872Z,63.70
2023-03-04T19:45:16.224Z,64.60
2023-03-04T19:47:44.176Z,66.70
2023-03-04T19:50:13.448Z,66.90
2023-03-04T19:52:43.250Z,67.30
2023-03-04T19:55:14.629Z,63.80
2023-03-04T19:57:42.943Z,67.30
2023-03-04T20:00:12.551Z,66.90
2023-03-04T20:02:43.110Z,69.10
2023-03-04T20:05:14.725Z,70.60
2023-03-04T20:07:44.869Z,73.30
2023-03-04T20:10:16.352Z,70.90
2023-03-04T20:12:44.415Z,70.70
2023-03-04T20:15:13.010Z,71.40
2023-03-04T20:17:41.022Z,69.30
2023-03-04T20:20:11.468Z,72.20
2023-03-04T20:22:39.496Z,72.90
2023-03-04T20:25:09.589Z,72.40
2023-03-04T20:27:37.545Z,70.10
2023-03-04T20:30:06.478Z,70.80
2023-03-04T20:32:34.624Z,71.70
2023-03-04T20:35:02.716Z,73.40
2023-03-04T20:37:30.750Z,73.30
2023-03-04T20:39:58.779Z,71.50
2023-03-04T20:42:28.228Z,67.60
2023-03-04T20:44:56.337Z,67.20
2023-03-04T20:47:24.380Z,69.00
2023-03-04T20:49:53.642Z,73.50
2023-03-04T20:52:21.597Z,73.00
2023-03-04T20:54:49.630Z,71.50
2023-03-04T20:57:17.629Z,70.60
2023-03-04T20:59:47.055Z,69.30
2023-03-04T21:02:17.477Z,69.80
2023-03-04T21:04:45.656Z,68.70
2023-03-04T21:07:14.054Z,67.40
2023-03-04T21:09:43.637Z,69.30
2023-03-04T21:12:12.266Z,71.60
2023-03-04T21:14:41.693Z,73.70
2023-03-04T21:17:11.226Z,73.40
2023-03-04T21:19:42.209Z,73.20
2023-03-04T21:22:14.271Z,72.50
2023-03-04T21:24:43.806Z,68.40
2023-03-04T21:27:13.080Z,69.90
2023-03-04T21:29:41.436Z,70.40
2023-03-04T21:32:23.774Z,70.90
2023-03-04T21:34:53.043Z,70.50
2023-03-04T21:37:21.317Z,70.50
2023-03-04T21:39:49.493Z,69.70
2023-03-04T21:42:17.673Z,69.00
2023-03-04T21:44:49.483Z,68.30
2023-03-04T21:47:20.211Z,69.20
2023-03-04T21:49:48.549Z,71.90
2023-03-04T21:52:16.710Z,73.00
2023-03-04T21:54:44.763Z,72.70
2023-03-04T21:57:13.749Z,72.70
2023-03-04T21:59:42.288Z,72.00
2023-03-04T22:02:18.213Z,71.00
2023-03-04T22:04:47.752Z,70.40
2023-03-04T22:07:16.101Z,69.70
2023-03-04T22:09:44.145Z,69.40
2023-03-04T22:12:12.243Z,68.60
2023-03-04T22:14:40.454Z,69.50
2023-03-04T22:17:08.530Z,70.10
2023-03-04T22:19:36.676Z,69.80
2023-03-04T22:22:06.502Z,70.40
2023-03-04T22:24:34.564Z,70.40
2023-03-04T22:27:02.534Z,71.40
2023-03-04T22:29:30.525Z,72.70
2023-03-04T22:31:58.662Z,71.70
2023-03-04T22:34:26.755Z,69.40
2023-03-04T22:36:54.737Z,69.80
2023-03-04T22:39:24.046Z,72.30
2023-03-04T22:41:52.215Z,71.00
2023-03-04T22:44:20.227Z,72.00
2023-03-04T22:46:48.308Z,73.10
2023-03-04T22:49:16.602Z,73.70
2023-03-04T22:51:45.610Z,74.20
2023-03-04T22:54:14.904Z,74.30
2023-03-04T22:56:44.561Z,73.60
2023-03-04T22:59:12.662Z,72.70
2023-03-04T23:01:40.696Z,73.20
2023-03-04T23:04:08.741Z,73.80
2023-03-04T23:06:37.784Z,73.20
2023-03-04T23:09:05.934Z,73.20
2023-03-04T23:11:36.547Z,72.80
2023-03-04T23:14:07.935Z,73.30
2023-03-04T23:16:38.630Z,73.60
2023-03-04T23:19:07.537Z,73.50
2023-03-04T23:21:36.310Z,73.90
2023-03-04T23:24:06.459Z,73.70
2023-03-04T23:26:36.496Z,73.90
2023-03-04T23:29:07.916Z,74.70
2023-03-04T23:31:36.646Z,74.90
2023-03-04T23:34:07.018Z,74.90
2023-03-04T23:36:37.216Z,74.80
2023-03-04T23:39:06.769Z,74.40
2023-03-04T23:41:35.412Z,74.80
2023-03-04T23:44:05.659Z,74.70
2023-03-04T23:46:33.712Z,74.40
2023-03-04T23:49:01.852Z,73.60
2023-03-04T23:51:30.727Z,73.80
2023-03-04T23:54:00.075Z,73.80
2023-03-04T23:56:29.584Z,73.10
2023-03-04T23:58:58.553Z,73.50
